Time;durP1;ratioP1;P1;durP2;ratioP2;P2;SDS_P1;SDS_P2;PMS_P1;PMS_P2;Temp;Humidity;BMP_temperature;BMP_pressure;BME280_temperature;BME280_humidity;BME280_pressure;Samples;Min_cycle;Max_cycle;Signal;HPM_P1;HPM_P2
2022/10/28 00:00:45;;;;;;;375.53;184.70;;;;;;;;;;5022413;28;20215;-69
2022/10/28 00:03:11;;;;;;;408.23;201.67;;;;;;;;;;5025814;28;20254;-68
2022/10/28 00:05:37;;;;;;;437.83;203.53;;;;;;;;;;5016670;28;20227;-74
2022/10/28 00:08:03;;;;;;;418.80;202.47;;;;;;;;;;5011205;28;20251;-74
2022/10/28 00:10:29;;;;;;;388.53;177.43;;;;;;;;;;5006416;28;20251;-74
2022/10/28 00:12:55;;;;;;;412.57;193.30;;;;;;;;;;5015010;28;20756;-74
2022/10/28 00:15:21;;;;;;;456.30;213.80;;;;;;;;;;5017982;28;20191;-74
2022/10/28 00:17:47;;;;;;;393.77;188.43;;;;;;;;;;5006309;28;20755;-74
2022/10/28 00:20:14;;;;;;;352.23;168.57;;;;;;;;;;5024744;28;20215;-74
2022/10/28 00:22:40;;;;;;;428.00;195.93;;;;;;;;;;5022778;28;20234;-74
2022/10/28 00:25:07;;;;;;;464.00;215.50;;;;;;;;;;5006181;28;20313;-74
2022/10/28 00:27:33;;;;;;;416.10;195.97;;;;;;;;;;5006216;28;20214;-74
2022/10/28 00:29:59;;;;;;;426.53;202.80;;;;;;;;;;5019332;28;20188;-74
2022/10/28 00:32:25;;;;;;;412.93;193.77;;;;;;;;;;5028718;28;20305;-74
2022/10/28 00:34:51;;;;;;;409.23;194.07;;;;;;;;;;5020125;28;20776;-74
2022/10/28 00:37:17;;;;;;;396.07;195.37;;;;;;;;;;5018391;28;20599;-74
2022/10/28 00:39:43;;;;;;;386.33;181.37;;;;;;;;;;5021790;28;20218;-74
2022/10/28 00:42:10;;;;;;;453.23;214.13;;;;;;;;;;5017245;28;20283;-74
2022/10/28 00:44:39;;;;;;;398.07;181.87;;;;;;;;;;5014966;28;20219;-73
2022/10/28 00:47:06;;;;;;;437.67;216.33;;;;;;;;;;5014612;28;20226;-73
2022/10/28 00:49:34;;;;;;;354.30;166.10;;;;;;;;;;5014505;28;20290;-73
2022/10/28 00:52:02;;;;;;;414.60;188.47;;;;;;;;;;4997175;28;20434;-73
2022/10/28 00:54:29;;;;;;;531.50;247.17;;;;;;;;;;4963543;28;20199;-73
2022/10/28 00:56:56;;;;;;;379.27;183.87;;;;;;;;;;4977727;28;20569;-73
2022/10/28 00:59:33;;;;;;;470.97;233.07;;;;;;;;;;4989457;28;20244;-73
2022/10/28 01:01:59;;;;;;;403.00;197.00;;;;;;;;;;5016393;28;20700;-73
2022/10/28 01:04:25;;;;;;;407.63;201.23;;;;;;;;;;5015764;28;20207;-73
2022/10/28 01:06:51;;;;;;;448.90;230.70;;;;;;;;;;5012545;28;20231;-73
2022/10/28 01:09:17;;;;;;;418.07;201.13;;;;;;;;;;5016096;28;20191;-73
2022/10/28 01:11:55;;;;;;;448.40;226.27;;;;;;;;;;5018929;28;20219;-73
2022/10/28 01:14:30;;;;;;;428.10;215.07;;;;;;;;;;5022239;28;20780;-73
2022/10/28 01:17:00;;;;;;;383.67;188.07;;;;;;;;;;5017128;28;20219;-73
2022/10/28 01:19:43;;;;;;;394.93;194.30;;;;;;;;;;5023772;28;20302;-73
2022/10/28 01:22:26;;;;;;;373.13;180.13;;;;;;;;;;5012277;28;20726;-73
2022/10/28 01:25:11;;;;;;;412.83;206.17;;;;;;;;;;5016909;28;21027;-73
2022/10/28 01:27:37;;;;;;;428.17;211.20;;;;;;;;;;5004790;28;20219;-73
2022/10/28 01:30:03;;;;;;;425.10;206.97;;;;;;;;;;5017280;28;20265;-73
2022/10/28 01:32:38;;;;;;;407.73;190.10;;;;;;;;;;5018524;28;20215;-73
2022/10/28 01:35:21;;;;;;;423.43;197.70;;;;;;;;;;5007474;28;20343;-73
2022/10/28 01:37:50;;;;;;;429.73;209.67;;;;;;;;;;5013993;28;20234;-73
2022/10/28 01:40:28;;;;;;;421.63;194.17;;;;;;;;;;5018839;28;20269;-73
2022/10/28 01:42:56;;;;;;;414.30;197.90;;;;;;;;;;5008181;28;20750;-73
2022/10/28 01:45:28;;;;;;;393.90;183.33;;;;;;;;;;5012528;28;23772;-73
2022/10/28 01:47:57;;;;;;;332.57;160.07;;;;;;;;;;5027814;28;20279;-73
2022/10/28 01:50:25;;;;;;;420.33;195.93;;;;;;;;;;5016966;28;20230;-73
2022/10/28 01:52:53;;;;;;;438.30;201.20;;;;;;;;;;5011259;28;20909;-73
2022/10/28 01:55:30;;;;;;;459.60;212.90;;;;;;;;;;5001362;28;20544;-73
2022/10/28 01:57:58;;;;;;;387.27;179.90;;;;;;;;;;5008417;28;20273;-73
2022/10/28 02:00:25;;;;;;;388.17;181.07;;;;;;;;;;5015677;28;20356;-73
2022/10/28 02:02:51;;;;;;;424.30;196.23;;;;;;;;;;5019089;28;20599;-73
2022/10/28 02:05:32;;;;;;;451.10;211.07;;;;;;;;;;4997553;28;20218;-73
2022/10/28 02:08:03;;;;;;;413.33;199.03;;;;;;;;;;4997982;28;20243;-73
2022/10/28 02:10:34;;;;;;;430.67;202.43;;;;;;;;;;4970355;28;20209;-73
2022/10/28 02:13:02;;;;;;;432.13;205.50;;;;;;;;;;4983607;28;20238;-73
2022/10/28 02:15:28;;;;;;;428.50;202.53;;;;;;;;;;5004544;28;20202;-73
2022/10/28 02:18:00;;;;;;;406.63;203.57;;;;;;;;;;4990266;28;20252;-73
2022/10/28 02:20:35;;;;;;;420.30;206.47;;;;;;;;;;4987000;28;20652;-73
2022/10/28 02:23:11;;;;;;;382.20;184.93;;;;;;;;;;4997022;28;20925;-73
2022/10/28 02:25:52;;;;;;;447.07;214.27;;;;;;;;;;4992901;28;20226;-73
2022/10/28 02:28:22;;;;;;;389.50;192.13;;;;;;;;;;4994504;28;20396;-73
2022/10/28 02:30:59;;;;;;;381.13;185.80;;;;;;;;;;5003149;28;20307;-73
2022/10/28 02:33:27;;;;;;;367.00;170.63;;;;;;;;;;4990636;28;20188;-73
2022/10/28 02:36:04;;;;;;;459.47;234.47;;;;;;;;;;4976707;28;20283;-73
2022/10/28 02:38:44;;;;;;;436.50;212.60;;;;;;;;;;4982520;28;20220;-73
2022/10/28 02:41:19;;;;;;;372.90;182.57;;;;;;;;;;4987580;28;20565;-73
2022/10/28 02:43:47;;;;;;;358.70;168.37;;;;;;;;;;5008455;28;20215;-73
2022/10/28 02:46:13;;;;;;;361.23;172.13;;;;;;;;;;5000512;28;20232;-71
2022/10/28 02:48:44;;;;;;;383.40;190.27;;;;;;;;;;4996376;28;20193;-71
2022/10/28 02:51:13;;;;;;;440.13;205.77;;;;;;;;;;5014004;28;20191;-71
2022/10/28 02:53:50;;;;;;;397.57;183.33;;;;;;;;;;5011131;28;20265;-70
2022/10/28 02:56:17;;;;;;;426.10;212.17;;;;;;;;;;5015051;28;20211;-71
2022/10/28 02:58:44;;;;;;;449.40;223.83;;;;;;;;;;4996197;28;20804;-71
2022/10/28 03:01:10;;;;;;;363.13;170.20;;;;;;;;;;5022878;28;20212;-71
2022/10/28 03:03:36;;;;;;;437.47;201.77;;;;;;;;;;5001499;28;20184;-71
2022/10/28 03:06:02;;;;;;;386.13;189.50;;;;;;;;;;5010686;28;20211;-70
2022/10/28 03:08:28;;;;;;;406.33;188.90;;;;;;;;;;5014947;28;20226;-70
2022/10/28 03:10:54;;;;;;;397.57;187.83;;;;;;;;;;5016457;28;20203;-71
2022/10/28 03:13:20;;;;;;;380.03;177.73;;;;;;;;;;5008510;28;22191;-70
2022/10/28 03:15:46;;;;;;;463.03;223.53;;;;;;;;;;5007337;28;20231;-71
2022/10/28 03:18:12;;;;;;;415.27;204.90;;;;;;;;;;5013893;28;20171;-71
2022/10/28 03:20:38;;;;;;;401.77;180.07;;;;;;;;;;5005623;28;20261;-70
2022/10/28 03:23:04;;;;;;;400.73;184.43;;;;;;;;;;5015391;28;24148;-71
2022/10/28 03:25:30;;;;;;;403.47;189.50;;;;;;;;;;5005556;28;20293;-71
2022/10/28 03:27:56;;;;;;;491.00;232.30;;;;;;;;;;5002690;28;20700;-71
2022/10/28 03:30:22;;;;;;;417.03;195.43;;;;;;;;;;5020529;28;20381;-70
2022/10/28 03:32:48;;;;;;;388.50;179.23;;;;;;;;;;5030792;28;20297;-70
2022/10/28 03:35:14;;;;;;;408.47;192.27;;;;;;;;;;5015261;28;20208;-72
2022/10/28 03:37:43;;;;;;;414.80;203.13;;;;;;;;;;5014740;28;20226;-71
2022/10/28 03:40:10;;;;;;;420.93;202.63;;;;;;;;;;5016653;28;20215;-70
2022/10/28 03:42:36;;;;;;;428.60;203.43;;;;;;;;;;5017005;28;20912;-71
2022/10/28 03:45:02;;;;;;;398.00;186.50;;;;;;;;;;5010992;28;20187;-72
2022/10/28 03:47:28;;;;;;;383.57;187.60;;;;;;;;;;4997709;28;20458;-70
2022/10/28 03:49:54;;;;;;;428.63;204.17;;;;;;;;;;5007236;28;20646;-70
2022/10/28 03:52:20;;;;;;;388.03;180.57;;;;;;;;;;5012746;28;20226;-70
2022/10/28 03:54:46;;;;;;;416.87;199.97;;;;;;;;;;5014827;28;20264;-71
2022/10/28 03:57:12;;;;;;;396.40;189.50;;;;;;;;;;5026303;28;20226;-70
2022/10/28 03:59:38;;;;;;;413.50;206.80;;;;;;;;;;5020983;28;20222;-70
2022/10/28 04:02:03;;;;;;;391.53;181.43;;;;;;;;;;5011592;28;20204;-71
2022/10/28 04:04:29;;;;;;;383.67;176.27;;;;;;;;;;5015817;28;20211;-71
2022/10/28 04:06:55;;;;;;;409.20;190.07;;;;;;;;;;5016642;28;20676;-71
2022/10/28 04:09:21;;;;;;;392.37;177.13;;;;;;;;;;5015331;28;20187;-71
2022/10/28 04:11:50;;;;;;;407.17;188.30;;;;;;;;;;5010364;28;20218;-71
2022/10/28 04:14:16;;;;;;;425.83;195.47;;;;;;;;;;5001430;28;20223;-70
2022/10/28 04:16:42;;;;;;;379.27;180.77;;;;;;;;;;5016601;28;20258;-72
2022/10/28 04:19:08;;;;;;;370.50;172.17;;;;;;;;;;5023086;28;20215;-71
2022/10/28 04:21:34;;;;;;;367.10;168.43;;;;;;;;;;5017460;28;21484;-72
2022/10/28 04:24:00;;;;;;;399.03;183.93;;;;;;;;;;5018132;28;20319;-72
2022/10/28 04:26:26;;;;;;;347.23;164.43;;;;;;;;;;5022044;28;20239;-72
2022/10/28 04:28:52;;;;;;;449.70;219.60;;;;;;;;;;5015678;28;20250;-71
2022/10/28 04:31:18;;;;;;;381.47;173.80;;;;;;;;;;4996273;28;20216;-71
2022/10/28 04:33:44;;;;;;;405.97;185.73;;;;;;;;;;5002611;28;20211;-70
2022/10/28 04:36:13;;;;;;;395.83;189.50;;;;;;;;;;5021843;28;20326;-70
2022/10/28 04:38:39;;;;;;;443.03;205.77;;;;;;;;;;5002289;28;20217;-72
2022/10/28 04:41:05;;;;;;;375.93;173.33;;;;;;;;;;4992736;28;20225;-70
2022/10/28 04:43:31;;;;;;;374.87;173.23;;;;;;;;;;4990834;28;20215;-71
2022/10/28 04:45:57;;;;;;;367.07;169.50;;;;;;;;;;4997660;28;20221;-70
2022/10/28 04:48:23;;;;;;;397.70;186.33;;;;;;;;;;5000002;28;20192;-70
2022/10/28 04:50:49;;;;;;;390.13;181.13;;;;;;;;;;5014378;28;20657;-70
2022/10/28 04:53:15;;;;;;;380.23;178.13;;;;;;;;;;4998007;28;20301;-71
2022/10/28 04:55:41;;;;;;;370.57;171.83;;;;;;;;;;5003355;28;20220;-70
2022/10/28 04:58:07;;;;;;;372.50;178.77;;;;;;;;;;4997177;28;20546;-71
2022/10/28 05:00:33;;;;;;;358.57;164.17;;;;;;;;;;5001957;28;20568;-71
2022/10/28 05:03:03;;;;;;;378.90;175.57;;;;;;;;;;5005610;28;20184;-70
2022/10/28 05:05:29;;;;;;;337.23;155.40;;;;;;;;;;5012641;28;20588;-71
2022/10/28 05:07:55;;;;;;;390.00;185.47;;;;;;;;;;5013162;28;20221;-71
2022/10/28 05:10:21;;;;;;;377.03;172.97;;;;;;;;;;5015379;28;20208;-72
2022/10/28 05:12:46;;;;;;;375.80;170.57;;;;;;;;;;5013261;28;20212;-72
2022/10/28 05:15:13;;;;;;;402.77;185.40;;;;;;;;;;4995937;28;20270;-72
2022/10/28 05:17:40;;;;;;;350.17;163.67;;;;;;;;;;5005024;28;20220;-70
2022/10/28 05:20:06;;;;;;;372.60;173.17;;;;;;;;;;5002742;28;20685;-71
2022/10/28 05:22:32;;;;;;;367.17;168.40;;;;;;;;;;5001271;28;20212;-72
2022/10/28 05:24:58;;;;;;;438.37;202.63;;;;;;;;;;5007637;28;20219;-72
2022/10/28 05:27:24;;;;;;;381.73;182.17;;;;;;;;;;5024179;28;20211;-71
2022/10/28 05:29:50;;;;;;;404.83;193.27;;;;;;;;;;5012979;28;20246;-71
2022/10/28 05:32:16;;;;;;;389.93;181.30;;;;;;;;;;5005124;28;21227;-71
2022/10/28 05:34:42;;;;;;;461.67;228.27;;;;;;;;;;4987881;28;21280;-72
2022/10/28 05:37:08;;;;;;;352.70;163.17;;;;;;;;;;5008281;28;20220;-71
2022/10/28 05:39:34;;;;;;;330.00;151.93;;;;;;;;;;5018527;28;20176;-69
2022/10/28 05:42:00;;;;;;;423.10;192.83;;;;;;;;;;5011390;28;20172;-74
2022/10/28 05:44:26;;;;;;;338.43;154.63;;;;;;;;;;5031069;28;20286;-74
2022/10/28 05:46:52;;;;;;;385.07;177.23;;;;;;;;;;5019635;28;20231;-71
2022/10/28 05:49:19;;;;;;;321.47;152.43;;;;;;;;;;5007455;28;20303;-71
2022/10/28 05:51:45;;;;;;;367.40;169.00;;;;;;;;;;5011360;28;20239;-73
2022/10/28 05:54:11;;;;;;;403.13;182.63;;;;;;;;;;5007214;28;20185;-67
2022/10/28 05:56:37;;;;;;;401.67;183.70;;;;;;;;;;5009638;28;20581;-67
2022/10/28 05:59:03;;;;;;;421.00;196.57;;;;;;;;;;5008414;28;20215;-65
2022/10/28 06:01:29;;;;;;;351.33;159.97;;;;;;;;;;5009818;28;20286;-66
2022/10/28 06:03:55;;;;;;;485.60;222.77;;;;;;;;;;4991803;28;20220;-66
2022/10/28 06:06:21;;;;;;;366.20;174.23;;;;;;;;;;5019074;28;20440;-66
2022/10/28 06:08:47;;;;;;;394.70;179.97;;;;;;;;;;5030388;28;20223;-67
2022/10/28 06:11:13;;;;;;;424.57;198.43;;;;;;;;;;4995537;28;20208;-72
2022/10/28 06:13:39;;;;;;;370.83;170.23;;;;;;;;;;5025462;28;20282;-69
2022/10/28 06:16:05;;;;;;;418.40;206.57;;;;;;;;;;5033616;28;20291;-69
2022/10/28 06:18:31;;;;;;;364.93;172.83;;;;;;;;;;5037474;28;22066;-69
2022/10/28 06:20:58;;;;;;;427.70;203.40;;;;;;;;;;5028487;28;20183;-69
2022/10/28 06:23:25;;;;;;;409.03;193.07;;;;;;;;;;5017105;28;20251;-69
2022/10/28 06:25:51;;;;;;;354.00;169.97;;;;;;;;;;5029141;28;20215;-70
2022/10/28 06:28:17;;;;;;;406.90;197.63;;;;;;;;;;5025773;28;20494;-69
2022/10/28 06:30:43;;;;;;;410.07;199.63;;;;;;;;;;5023314;28;20634;-70
2022/10/28 06:33:09;;;;;;;362.97;177.70;;;;;;;;;;5029633;28;20192;-69
2022/10/28 06:35:35;;;;;;;353.63;169.73;;;;;;;;;;5030301;28;20212;-69
2022/10/28 06:38:01;;;;;;;432.00;209.73;;;;;;;;;;5027768;28;20943;-69
2022/10/28 06:40:28;;;;;;;364.53;173.37;;;;;;;;;;5032474;28;20436;-69
2022/10/28 06:43:01;;;;;;;413.00;201.53;;;;;;;;;;5028893;28;20250;-69
2022/10/28 06:45:30;;;;;;;373.27;180.17;;;;;;;;;;5015744;28;20631;-69
2022/10/28 06:47:57;;;;;;;333.93;156.13;;;;;;;;;;5025961;28;20808;-69
2022/10/28 06:50:23;;;;;;;350.80;166.63;;;;;;;;;;5026762;28;20257;-69
2022/10/28 06:52:49;;;;;;;373.97;177.57;;;;;;;;;;5037576;28;20516;-73
2022/10/28 06:55:15;;;;;;;354.27;168.17;;;;;;;;;;5035275;28;20219;-73
2022/10/28 06:57:41;;;;;;;386.40;189.60;;;;;;;;;;5017945;28;20257;-76
2022/10/28 07:00:08;;;;;;;356.20;168.97;;;;;;;;;;5016277;28;20722;-77
2022/10/28 07:02:33;;;;;;;372.20;180.43;;;;;;;;;;5014205;28;20307;-76
2022/10/28 07:04:59;;;;;;;400.47;196.70;;;;;;;;;;5026463;28;20811;-76
2022/10/28 07:07:25;;;;;;;345.00;166.17;;;;;;;;;;5021483;28;20270;-77
2022/10/28 07:09:51;;;;;;;340.27;161.53;;;;;;;;;;5011261;28;20695;-76
2022/10/28 07:12:17;;;;;;;482.67;264.87;;;;;;;;;;5011168;28;20180;-76
2022/10/28 07:14:43;;;;;;;356.70;176.37;;;;;;;;;;5026222;28;20218;-76
2022/10/28 07:17:09;;;;;;;334.87;161.23;;;;;;;;;;5013807;28;20404;-76
2022/10/28 07:19:35;;;;;;;341.23;166.47;;;;;;;;;;5016301;28;20634;-76
2022/10/28 07:22:01;;;;;;;382.93;193.90;;;;;;;;;;5022869;28;20216;-76
2022/10/28 07:24:27;;;;;;;356.90;174.93;;;;;;;;;;5006050;28;20242;-75
2022/10/28 07:26:53;;;;;;;361.63;175.17;;;;;;;;;;5001137;28;20208;-76
2022/10/28 07:29:18;;;;;;;345.60;164.53;;;;;;;;;;5010891;28;20627;-76
2022/10/28 07:31:44;;;;;;;392.07;198.90;;;;;;;;;;5011093;28;20208;-76
2022/10/28 07:34:10;;;;;;;341.53;165.90;;;;;;;;;;5008475;28;21322;-77
2022/10/28 07:36:36;;;;;;;436.37;223.87;;;;;;;;;;4998785;28;20217;-77
2022/10/28 07:39:02;;;;;;;416.77;196.37;;;;;;;;;;4991406;28;20224;-76
2022/10/28 07:41:29;;;;;;;363.80;174.40;;;;;;;;;;4999568;28;20237;-76
2022/10/28 07:43:55;;;;;;;394.90;189.53;;;;;;;;;;5008476;28;20265;-76
2022/10/28 07:46:20;;;;;;;397.00;196.17;;;;;;;;;;5014768;28;20229;-77
2022/10/28 07:48:46;;;;;;;477.33;225.53;;;;;;;;;;4989789;28;20220;-76
2022/10/28 07:51:14;;;;;;;448.47;212.77;;;;;;;;;;4989882;28;20201;-75
2022/10/28 07:53:40;;;;;;;440.13;204.27;;;;;;;;;;4985236;28;21877;-76
2022/10/28 07:56:12;;;;;;;424.03;219.37;;;;;;;;;;4983817;28;20285;-76
2022/10/28 07:58:38;;;;;;;394.87;194.37;;;;;;;;;;4977763;28;20298;-75
2022/10/28 08:01:05;;;;;;;413.40;197.10;;;;;;;;;;4989386;28;20216;-75
2022/10/28 08:03:31;;;;;;;424.97;204.00;;;;;;;;;;5009155;28;21123;-76
2022/10/28 08:06:05;;;;;;;408.63;195.40;;;;;;;;;;5003997;28;20222;-76
2022/10/28 08:08:31;;;;;;;355.73;168.30;;;;;;;;;;4998242;28;20219;-76
2022/10/28 08:10:57;;;;;;;480.37;220.57;;;;;;;;;;4997173;28;20216;-75
2022/10/28 08:13:23;;;;;;;405.47;201.67;;;;;;;;;;5002222;28;20239;-76
2022/10/28 08:15:53;;;;;;;354.53;167.13;;;;;;;;;;5014061;28;20305;-76
2022/10/28 08:18:19;;;;;;;423.07;212.57;;;;;;;;;;4994767;28;20277;-76
2022/10/28 08:20:45;;;;;;;411.07;201.87;;;;;;;;;;4992060;28;20227;-75
2022/10/28 08:23:11;;;;;;;456.80;237.80;;;;;;;;;;5009850;28;20211;-76
2022/10/28 08:25:37;;;;;;;403.67;201.53;;;;;;;;;;5011016;28;20227;-76
2022/10/28 08:28:03;;;;;;;342.43;165.37;;;;;;;;;;5024137;28;20262;-76
2022/10/28 08:30:29;;;;;;;400.03;205.17;;;;;;;;;;5016551;28;20218;-75
2022/10/28 08:32:55;;;;;;;372.73;193.13;;;;;;;;;;5033190;28;20187;-76
2022/10/28 08:35:21;;;;;;;391.30;202.70;;;;;;;;;;5019246;28;20253;-75
2022/10/28 08:37:50;;;;;;;407.83;214.93;;;;;;;;;;5023529;28;20212;-76
2022/10/28 08:40:16;;;;;;;381.93;196.23;;;;;;;;;;5019438;28;20572;-76
2022/10/28 08:42:52;;;;;;;492.57;265.13;;;;;;;;;;5015517;28;20220;-76
2022/10/28 08:45:39;;;;;;;348.23;167.50;;;;;;;;;;5001912;28;20184;-76
2022/10/28 08:48:05;;;;;;;429.33;226.70;;;;;;;;;;5013560;28;20231;-75
2022/10/28 08:50:32;;;;;;;373.87;188.13;;;;;;;;;;5014063;28;20245;-76
2022/10/28 08:53:09;;;;;;;396.20;202.53;;;;;;;;;;5024998;28;20322;-76
2022/10/28 08:55:36;;;;;;;421.10;218.03;;;;;;;;;;5007826;28;20248;-75
2022/10/28 08:58:21;;;;;;;430.50;222.10;;;;;;;;;;5005698;28;20642;-76
2022/10/28 09:00:51;;;;;;;358.87;175.67;;;;;;;;;;5011178;28;20215;-75
2022/10/28 09:03:21;;;;;;;388.13;192.83;;;;;;;;;;5008001;28;20178;-76
2022/10/28 09:05:48;;;;;;;438.97;234.23;;;;;;;;;;5015030;28;20231;-76
2022/10/28 09:08:20;;;;;;;354.37;176.33;;;;;;;;;;5031964;28;20683;-76
2022/10/28 09:11:15;;;;;;;389.33;198.83;;;;;;;;;;5016929;28;20223;-75
2022/10/28 09:14:00;;;;;;;382.93;195.13;;;;;;;;;;5013125;28;20273;-76
2022/10/28 09:16:38;;;;;;;363.87;179.60;;;;;;;;;;5025520;28;20220;-76
2022/10/28 09:19:13;;;;;;;377.83;185.53;;;;;;;;;;5017630;28;20219;-76
2022/10/28 09:21:52;;;;;;;411.00;207.83;;;;;;;;;;5024274;28;20196;-76
2022/10/28 09:24:20;;;;;;;418.90;209.20;;;;;;;;;;4991389;28;20541;-76
2022/10/28 09:26:58;;;;;;;371.73;183.33;;;;;;;;;;5005055;28;20220;-76
2022/10/28 09:29:37;;;;;;;398.30;197.13;;;;;;;;;;5001042;28;20204;-76
2022/10/28 09:32:15;;;;;;;344.23;172.03;;;;;;;;;;5008054;28;20327;-75
2022/10/28 09:34:44;;;;;;;425.97;211.57;;;;;;;;;;4998454;28;20710;-76
2022/10/28 09:37:22;;;;;;;349.53;174.37;;;;;;;;;;4995816;28;20830;-75
2022/10/28 09:39:50;;;;;;;434.63;215.90;;;;;;;;;;4982466;28;20215;-76
2022/10/28 09:42:18;;;;;;;423.30;212.93;;;;;;;;;;4994047;28;20207;-76
2022/10/28 09:44:48;;;;;;;432.97;220.27;;;;;;;;;;4984353;28;21649;-69
2022/10/28 09:47:16;;;;;;;418.30;211.27;;;;;;;;;;4989999;28;20219;-70
2022/10/28 09:49:42;;;;;;;355.57;179.80;;;;;;;;;;4999976;28;21847;-70
2022/10/28 09:52:08;;;;;;;393.57;205.83;;;;;;;;;;4995599;28;20728;-71
2022/10/28 09:54:36;;;;;;;378.53;206.60;;;;;;;;;;5003751;28;20193;-71
2022/10/28 09:57:02;;;;;;;475.83;252.30;;;;;;;;;;4991063;28;20813;-72
2022/10/28 09:59:28;;;;;;;416.03;214.53;;;;;;;;;;4986474;28;20209;-73
2022/10/28 10:01:54;;;;;;;395.43;204.47;;;;;;;;;;4993098;28;20215;-73
2022/10/28 10:04:21;;;;;;;424.37;218.30;;;;;;;;;;4994389;28;20700;-73
2022/10/28 10:06:49;;;;;;;456.37;234.67;;;;;;;;;;4993061;28;20320;-71
2022/10/28 10:09:26;;;;;;;410.80;215.07;;;;;;;;;;5000856;28;20196;-70
2022/10/28 10:11:54;;;;;;;479.03;252.93;;;;;;;;;;5001208;28;20215;-69
2022/10/28 10:14:25;;;;;;;369.57;197.53;;;;;;;;;;4978711;28;21730;-71
2022/10/28 10:16:56;;;;;;;427.83;230.23;;;;;;;;;;4977756;28;20216;-70
2022/10/28 10:19:22;;;;;;;458.00;234.47;;;;;;;;;;4973756;28;20833;-70
2022/10/28 10:21:49;;;;;;;399.23;209.17;;;;;;;;;;4993959;28;20224;-70
2022/10/28 10:24:27;;;;;;;367.40;197.67;;;;;;;;;;5006283;28;20254;-69
2022/10/28 10:26:53;;;;;;;389.43;208.83;;;;;;;;;;5023301;28;20309;-70
2022/10/28 10:29:20;;;;;;;528.23;294.90;;;;;;;;;;4993859;28;20220;-69
2022/10/28 10:31:47;;;;;;;466.33;260.93;;;;;;;;;;4979660;28;20685;-71
2022/10/28 10:34:31;;;;;;;356.53;198.80;;;;;;;;;;4983318;28;20251;-70
2022/10/28 10:36:57;;;;;;;434.77;238.03;;;;;;;;;;4976975;28;20232;-70
2022/10/28 10:39:26;;;;;;;448.07;254.00;;;;;;;;;;4973973;28;20588;-70
2022/10/28 10:41:54;;;;;;;405.60;225.00;;;;;;;;;;4992714;28;20212;-70
2022/10/28 10:44:20;;;;;;;343.53;191.40;;;;;;;;;;5005838;28;20220;-70
2022/10/28 10:46:46;;;;;;;461.77;250.20;;;;;;;;;;4982193;28;20239;-70
2022/10/28 10:49:14;;;;;;;474.80;261.27;;;;;;;;;;4973806;28;24065;-68
2022/10/28 10:51:50;;;;;;;454.80;252.40;;;;;;;;;;4992295;28;20725;-68
2022/10/28 10:54:16;;;;;;;502.73;273.30;;;;;;;;;;4990971;28;20329;-70
2022/10/28 10:56:42;;;;;;;508.40;271.97;;;;;;;;;;5010118;28;20641;-70
2022/10/28 10:59:18;;;;;;;462.50;249.53;;;;;;;;;;4972209;28;20228;-72
2022/10/28 11:01:44;;;;;;;426.63;233.63;;;;;;;;;;4970712;28;20307;-70
2022/10/28 11:04:16;;;;;;;412.03;229.97;;;;;;;;;;5002034;28;20228;-71
2022/10/28 11:06:43;;;;;;;373.50;218.33;;;;;;;;;;5022785;28;20487;-70
2022/10/28 11:09:27;;;;;;;376.87;220.70;;;;;;;;;;5014504;28;20697;-70
2022/10/28 11:11:57;;;;;;;341.40;195.97;;;;;;;;;;5033809;28;20212;-71
2022/10/28 11:14:24;;;;;;;333.70;191.17;;;;;;;;;;5027990;28;20231;-71
2022/10/28 11:16:51;;;;;;;339.83;187.77;;;;;;;;;;5030690;28;20219;-72
2022/10/28 11:19:21;;;;;;;338.87;194.70;;;;;;;;;;5019341;28;20208;-71
2022/10/28 11:21:52;;;;;;;339.37;194.57;;;;;;;;;;5002860;28;20539;-71
2022/10/28 11:24:31;;;;;;;355.93;206.23;;;;;;;;;;5016889;28;20175;-70
2022/10/28 11:27:03;;;;;;;329.87;191.73;;;;;;;;;;5027322;28;20330;-71
2022/10/28 11:29:29;;;;;;;345.57;199.70;;;;;;;;;;5009168;28;20307;-71
2022/10/28 11:32:02;;;;;;;376.27;216.90;;;;;;;;;;5002080;28;20419;-71
2022/10/28 11:34:40;;;;;;;365.47;212.33;;;;;;;;;;5001118;28;20592;-71
2022/10/28 11:37:09;;;;;;;405.90;246.37;;;;;;;;;;5002662;28;20224;-71
2022/10/28 11:40:09;;;;;;;354.73;209.73;;;;;;;;;;5012498;28;20180;-71
2022/10/28 11:42:45;;;;;;;345.47;206.30;;;;;;;;;;5012478;28;20327;-71
2022/10/28 11:45:22;;;;;;;360.60;215.80;;;;;;;;;;5008448;28;20771;-71
2022/10/28 11:47:56;;;;;;;365.27;205.00;;;;;;;;;;5003157;28;20227;-71
2022/10/28 11:50:40;;;;;;;415.20;230.40;;;;;;;;;;4998873;28;20212;-72
2022/10/28 11:53:14;;;;;;;364.60;207.60;;;;;;;;;;4983044;28;21837;-70
2022/10/28 11:55:56;;;;;;;386.80;215.03;;;;;;;;;;4970774;28;20220;-70
2022/10/28 11:58:31;;;;;;;434.60;243.00;;;;;;;;;;4979695;28;20213;-71
2022/10/28 12:00:57;;;;;;;353.93;210.93;;;;;;;;;;4983856;28;20631;-69
2022/10/28 12:03:42;;;;;;;399.90;237.40;;;;;;;;;;5008655;28;20181;-62
2022/10/28 12:06:25;;;;;;;331.57;197.87;;;;;;;;;;5014585;28;20216;-67
2022/10/28 12:09:09;;;;;;;390.37;223.83;;;;;;;;;;5002317;28;20227;-67
2022/10/28 12:11:44;;;;;;;411.23;239.43;;;;;;;;;;5009378;28;20238;-67
2022/10/28 12:14:17;;;;;;;375.43;228.97;;;;;;;;;;5014366;28;20211;-67
2022/10/28 12:16:47;;;;;;;408.57;241.27;;;;;;;;;;4996102;28;20305;-67
2022/10/28 12:19:18;;;;;;;358.23;209.37;;;;;;;;;;5007687;28;20218;-67
2022/10/28 12:21:54;;;;;;;349.77;201.23;;;;;;;;;;5012337;28;20252;-67
2022/10/28 12:24:22;;;;;;;365.00;217.70;;;;;;;;;;5012266;28;21200;-67
2022/10/28 12:26:51;;;;;;;379.57;225.43;;;;;;;;;;5000813;28;20231;-67
2022/10/28 12:29:27;;;;;;;373.20;221.57;;;;;;;;;;4986561;28;20251;-67
2022/10/28 12:32:04;;;;;;;345.53;206.27;;;;;;;;;;5003247;28;20689;-67
2022/10/28 12:34:48;;;;;;;362.13;216.27;;;;;;;;;;4998428;28;20216;-67
2022/10/28 12:37:32;;;;;;;363.07;217.43;;;;;;;;;;5000301;28;20286;-67
2022/10/28 12:40:11;;;;;;;359.07;219.60;;;;;;;;;;4980252;28;20225;-68
2022/10/28 12:42:40;;;;;;;399.80;238.97;;;;;;;;;;4988958;28;20173;-67
2022/10/28 12:45:09;;;;;;;484.23;286.93;;;;;;;;;;4975439;28;20192;-66
2022/10/28 12:47:41;;;;;;;384.83;230.70;;;;;;;;;;4994960;28;20247;-67
2022/10/28 12:50:07;;;;;;;395.43;244.30;;;;;;;;;;4981912;28;20266;-67
2022/10/28 12:52:36;;;;;;;363.70;224.97;;;;;;;;;;5003338;28;20208;-67
2022/10/28 12:55:14;;;;;;;426.83;267.43;;;;;;;;;;5009666;28;20212;-67
2022/10/28 12:57:42;;;;;;;437.17;281.40;;;;;;;;;;4996939;28;20218;-67
2022/10/28 13:00:14;;;;;;;392.60;255.33;;;;;;;;;;4979138;28;20216;-68
2022/10/28 13:02:42;;;;;;;363.70;247.23;;;;;;;;;;5009038;28;20213;-67
2022/10/28 13:05:14;;;;;;;448.85;320.10;;;;;;;;;;4990729;28;20249;-68
2022/10/28 13:07:40;;;;;;;447.35;321.25;;;;;;;;;;5004204;28;20580;-68
2022/10/28 13:10:09;;;;;;;382.85;281.38;;;;;;;;;;5007333;28;20217;-67
2022/10/28 13:12:38;;;;;;;387.77;301.02;;;;;;;;;;5000222;28;20185;-68
2022/10/28 13:15:13;;;;;;;400.23;316.95;;;;;;;;;;5013569;28;20204;-68
2022/10/28 13:17:39;;;;;;;379.33;306.83;;;;;;;;;;5002275;28;20241;-68
2022/10/28 13:20:18;;;;;;;407.73;338.70;;;;;;;;;;5006264;28;20243;-68
2022/10/28 13:22:44;;;;;;;405.35;329.75;;;;;;;;;;4994654;28;20231;-68
2022/10/28 13:25:10;;;;;;;396.10;340.33;;;;;;;;;;5005261;28;20232;-68
2022/10/28 13:27:36;;;;;;;443.83;360.73;;;;;;;;;;4991045;28;20262;-68
2022/10/28 13:30:02;;;;;;;435.60;337.95;;;;;;;;;;4990391;28;20192;-68
2022/10/28 13:32:33;;;;;;;353.55;284.73;;;;;;;;;;4990191;28;20228;-68
2022/10/28 13:35:00;;;;;;;415.45;317.38;;;;;;;;;;4997186;28;20220;-67
2022/10/28 13:37:31;;;;;;;379.38;293.77;;;;;;;;;;5006587;28;20228;-68
2022/10/28 13:39:56;;;;;;;412.38;313.77;;;;;;;;;;5005607;28;20212;-68
2022/10/28 13:42:22;;;;;;;393.42;295.08;;;;;;;;;;5000823;28;20185;-68
2022/10/28 13:44:48;;;;;;;360.38;279.05;;;;;;;;;;4998681;28;20184;-67
2022/10/28 13:47:14;;;;;;;378.35;285.10;;;;;;;;;;5010617;28;20704;-68
2022/10/28 13:49:59;;;;;;;363.97;272.77;;;;;;;;;;5001012;28;20266;-67
2022/10/28 13:52:25;;;;;;;350.27;266.50;;;;;;;;;;5005538;28;20232;-67
2022/10/28 13:54:52;;;;;;;397.17;282.93;;;;;;;;;;5005965;28;20243;-67
2022/10/28 13:57:26;;;;;;;361.40;257.37;;;;;;;;;;5002022;28;20208;-67
2022/10/28 13:59:58;;;;;;;377.63;267.70;;;;;;;;;;5005638;28;20208;-68
2022/10/28 14:02:27;;;;;;;334.33;238.30;;;;;;;;;;4993904;28;20734;-68